createdAt,value
2023-05-18T00:01:41.161Z,4.93
2023-05-18T00:04:17.489Z,5.90
2023-05-18T00:06:49.732Z,4.55
2023-05-18T00:09:21.886Z,4.68
2023-05-18T00:11:54.272Z,3.90
2023-05-18T00:14:26.937Z,6.50
2023-05-18T00:17:02.075Z,5.25
2023-05-18T00:19:37.599Z,9.27
2023-05-18T00:22:09.737Z,5.07
2023-05-18T00:24:41.860Z,6.53
2023-05-18T00:27:14.106Z,6.45
2023-05-18T00:29:46.351Z,4.53
2023-05-18T00:32:18.518Z,6.43
2023-05-18T00:34:53.620Z,7.43
2023-05-18T00:37:25.775Z,6.40
2023-05-18T00:39:57.886Z,6.72
2023-05-18T00:42:30.015Z,5.60
2023-05-18T00:45:02.229Z,4.13
2023-05-18T00:47:34.502Z,5.18
2023-05-18T00:50:10.466Z,5.28
2023-05-18T00:52:43.745Z,6.15
2023-05-18T00:55:15.991Z,7.18
2023-05-18T00:57:48.410Z,5.53
2023-05-18T01:00:21.504Z,7.25
2023-05-18T01:02:53.723Z,5.85
2023-05-18T01:05:28.678Z,3.92
2023-05-18T01:08:03.185Z,6.15
2023-05-18T01:10:38.375Z,4.72
2023-05-18T01:13:15.882Z,4.85
2023-05-18T01:15:54.273Z,5.68
2023-05-18T01:18:31.868Z,6.15
2023-05-18T01:21:19.587Z,4.72
2023-05-18T01:24:04.050Z,4.82
2023-05-18T01:26:41.622Z,5.38
2023-05-18T01:29:15.666Z,4.82
2023-05-18T01:31:47.876Z,5.07
2023-05-18T01:34:20.060Z,4.75
2023-05-18T01:36:52.284Z,5.80
2023-05-18T01:39:24.481Z,3.70
2023-05-18T01:42:05.337Z,5.45
2023-05-18T01:44:42.415Z,6.38
2023-05-18T01:47:16.353Z,6.72
2023-05-18T01:49:56.867Z,4.78
2023-05-18T01:52:32.940Z,3.92
2023-05-18T01:55:07.304Z,3.38
2023-05-18T01:57:45.196Z,4.90
2023-05-18T02:02:50.364Z,4.35
2023-05-18T02:05:22.615Z,4.85
2023-05-18T02:07:54.769Z,8.38
2023-05-18T02:10:26.894Z,5.80
2023-05-18T02:13:02.122Z,5.22
2023-05-18T02:15:34.299Z,5.20
2023-05-18T02:18:08.619Z,6.70
2023-05-18T02:20:40.888Z,5.05
2023-05-18T02:23:13.014Z,13.00
2023-05-18T02:25:45.112Z,4.63
2023-05-18T02:28:19.798Z,5.22
2023-05-18T02:30:51.970Z,4.10
2023-05-18T02:33:26.718Z,7.32
2023-05-18T02:35:58.991Z,6.70
2023-05-18T02:38:31.051Z,5.72
2023-05-18T02:41:03.297Z,2.55
2023-05-18T02:43:38.168Z,5.05
2023-05-18T02:46:10.408Z,5.70
2023-05-18T02:48:45.896Z,6.57
2023-05-18T02:51:18.076Z,3.60
2023-05-18T02:53:50.511Z,6.50
2023-05-18T02:56:23.224Z,5.43
2023-05-18T02:58:58.873Z,4.25
2023-05-18T03:01:31.137Z,6.22
2023-05-18T03:04:03.575Z,5.97
2023-05-18T03:06:36.379Z,4.95
2023-05-18T03:09:08.645Z,5.75
2023-05-18T03:11:40.778Z,4.95
2023-05-18T03:14:15.675Z,4.78
2023-05-18T03:16:48.213Z,4.15
2023-05-18T03:19:20.835Z,5.75
2023-05-18T03:21:53.643Z,7.45
2023-05-18T03:24:26.771Z,9.98
2023-05-18T03:27:01.154Z,4.47
2023-05-18T03:29:36.484Z,4.15
2023-05-18T03:32:08.876Z,4.88
2023-05-18T03:34:41.018Z,6.00
2023-05-18T03:37:13.141Z,6.88
2023-05-18T03:39:45.240Z,4.50
2023-05-18T03:42:17.423Z,7.47
2023-05-18T03:44:52.187Z,5.60
2023-05-18T03:47:24.303Z,3.20
2023-05-18T03:49:56.493Z,4.00
2023-05-18T03:52:30.221Z,6.65
2023-05-18T03:55:02.837Z,4.45
2023-05-18T03:57:34.964Z,5.10
2023-05-18T04:00:12.398Z,7.63
2023-05-18T04:02:44.740Z,2.88
2023-05-18T04:05:16.963Z,3.15
2023-05-18T04:07:50.296Z,5.07
2023-05-18T04:10:22.590Z,3.38
2023-05-18T04:12:54.838Z,4.57
2023-05-18T04:15:30.033Z,7.30
2023-05-18T04:18:02.491Z,3.80
2023-05-18T04:20:34.762Z,3.58
2023-05-18T04:23:09.932Z,7.40
2023-05-18T04:25:42.064Z,6.32
2023-05-18T04:28:14.201Z,4.70
2023-05-18T04:30:48.958Z,10.95
2023-05-18T04:33:21.086Z,5.10
2023-05-18T04:35:56.064Z,6.00
2023-05-18T04:38:28.188Z,7.80
2023-05-18T04:41:00.873Z,8.80
2023-05-18T04:43:33.078Z,5.95
2023-05-18T04:46:07.859Z,6.40
2023-05-18T04:48:40.208Z,5.55
2023-05-18T04:51:12.315Z,5.38
2023-05-18T04:53:46.247Z,3.92
2023-05-18T04:56:18.810Z,4.60
2023-05-18T04:58:51.683Z,7.13
2023-05-18T05:01:26.607Z,6.97
2023-05-18T05:03:59.888Z,5.63
2023-05-18T05:06:32.098Z,4.93
2023-05-18T05:09:04.645Z,6.45
2023-05-18T05:11:36.781Z,5.80
2023-05-18T05:14:09.043Z,4.68
2023-05-18T05:16:43.763Z,6.32
2023-05-18T05:19:16.096Z,6.90
2023-05-18T05:21:48.544Z,3.88
2023-05-18T05:24:20.777Z,6.68
2023-05-18T05:26:52.920Z,6.47
2023-05-18T05:29:26.744Z,5.32
2023-05-18T05:32:01.522Z,5.43
2023-05-18T05:34:33.728Z,5.32
2023-05-18T05:37:06.486Z,3.63
2023-05-18T05:39:38.908Z,6.10
2023-05-18T05:42:11.287Z,5.90
2023-05-18T05:44:43.460Z,4.75
2023-05-18T05:47:18.243Z,5.72
2023-05-18T05:49:50.392Z,3.25
2023-05-18T05:52:22.635Z,3.72
2023-05-18T05:54:54.749Z,5.45
2023-05-18T05:57:26.853Z,4.55
2023-05-18T05:59:58.997Z,7.82
2023-05-18T06:02:34.440Z,6.18
2023-05-18T06:05:07.544Z,5.50
2023-05-18T06:07:39.652Z,9.80
2023-05-18T06:10:11.753Z,6.07
2023-05-18T06:12:43.859Z,7.40
2023-05-18T06:15:16.234Z,6.32
2023-05-18T06:17:50.976Z,5.00
2023-05-18T06:20:23.439Z,3.97
2023-05-18T06:22:56.917Z,5.20
2023-05-18T06:25:29.282Z,7.40
2023-05-18T06:28:01.657Z,4.95
2023-05-18T06:30:34.030Z,3.80
2023-05-18T06:33:08.911Z,5.78
2023-05-18T06:35:41.417Z,7.95
2023-05-18T06:38:13.628Z,5.03
2023-05-18T06:40:45.868Z,7.82
2023-05-18T06:43:18.103Z,4.75
2023-05-18T06:45:50.234Z,5.43
2023-05-18T06:48:27.799Z,4.68
2023-05-18T06:51:00.012Z,5.07
2023-05-18T06:53:32.285Z,7.88
2023-05-18T06:56:05.211Z,4.47
2023-05-18T06:58:37.499Z,5.32
2023-05-18T07:01:10.092Z,3.47
2023-05-18T07:03:45.342Z,7.20
2023-05-18T07:06:17.673Z,4.72
2023-05-18T07:08:50.213Z,4.63
2023-05-18T07:11:23.201Z,7.30
2023-05-18T07:13:55.368Z,8.23
2023-05-18T07:16:28.269Z,10.00
2023-05-18T07:19:03.848Z,7.47
2023-05-18T07:21:36.133Z,3.50
2023-05-18T07:24:08.432Z,5.82
2023-05-18T07:26:40.712Z,8.63
2023-05-18T07:29:12.869Z,7.00
2023-05-18T07:31:45.114Z,5.88
2023-05-18T07:34:19.870Z,7.40
2023-05-18T07:36:52.006Z,4.32
2023-05-18T07:39:28.936Z,2.88
2023-05-18T07:42:03.057Z,7.05
2023-05-18T07:44:35.187Z,8.55
2023-05-18T07:47:07.552Z,6.68
2023-05-18T07:49:43.270Z,4.93
2023-05-18T07:52:15.519Z,6.60
2023-05-18T07:54:47.637Z,5.82
2023-05-18T07:57:20.055Z,6.40
2023-05-18T07:59:52.709Z,4.78
2023-05-18T08:02:25.003Z,4.15
2023-05-18T08:04:59.855Z,6.63
2023-05-18T08:07:33.149Z,6.57
2023-05-18T08:10:06.274Z,7.25
2023-05-18T08:12:38.411Z,4.03
2023-05-18T08:15:11.391Z,5.90
2023-05-18T08:17:43.585Z,6.50
2023-05-18T08:20:19.264Z,5.85
2023-05-18T08:22:51.534Z,5.80
2023-05-18T08:25:24.249Z,5.82
2023-05-18T08:27:56.499Z,4.10
2023-05-18T08:30:28.687Z,5.07
2023-05-18T08:33:01.019Z,6.50
2023-05-18T08:35:36.043Z,5.82
2023-05-18T08:38:08.291Z,5.80
2023-05-18T08:40:47.108Z,4.30
2023-05-18T08:43:23.417Z,7.20
2023-05-18T08:46:02.247Z,7.82
2023-05-18T08:48:35.443Z,6.85
2023-05-18T08:51:11.790Z,40.78
2023-05-18T08:53:45.206Z,4.45
2023-05-18T08:56:18.048Z,7.63
2023-05-18T08:58:57.349Z,4.75
2023-05-18T09:01:30.113Z,6.57
2023-05-18T09:04:03.249Z,8.05
2023-05-18T09:06:38.312Z,6.32
2023-05-18T09:09:10.771Z,4.95
2023-05-18T09:11:43.492Z,6.07
2023-05-18T09:14:15.738Z,5.15
2023-05-18T09:16:47.884Z,5.22
2023-05-18T09:19:20.512Z,4.00
2023-05-18T09:21:55.641Z,5.22
2023-05-18T09:24:27.955Z,6.45
2023-05-18T09:27:07.840Z,4.32
2023-05-18T09:29:56.090Z,5.70
2023-05-18T09:32:29.839Z,8.73
2023-05-18T09:35:05.336Z,5.88
2023-05-18T09:37:42.679Z,7.03
2023-05-18T09:40:16.926Z,6.88
2023-05-18T09:42:51.626Z,5.55
2023-05-18T09:45:36.069Z,6.22
2023-05-18T09:48:09.790Z,8.90
2023-05-18T09:50:45.861Z,6.03
2023-05-18T09:53:21.409Z,24.30
2023-05-18T09:56:02.555Z,4.63
2023-05-18T09:58:37.225Z,10.23
2023-05-18T10:01:09.505Z,4.68
2023-05-18T10:03:41.771Z,6.10
2023-05-18T10:06:14.049Z,8.05
2023-05-18T10:08:49.023Z,6.13
2023-05-18T10:11:22.170Z,6.10
2023-05-18T10:13:56.287Z,7.40
2023-05-18T10:16:29.043Z,11.98
2023-05-18T10:19:02.171Z,7.57
2023-05-18T10:21:36.108Z,6.45
2023-05-18T10:24:19.213Z,11.15
2023-05-18T10:27:00.034Z,5.03
2023-05-18T10:29:34.244Z,8.10
2023-05-18T10:32:09.284Z,7.93
2023-05-18T10:34:43.784Z,7.90
2023-05-18T10:37:17.825Z,7.95
2023-05-18T10:39:56.211Z,8.45
2023-05-18T10:42:31.400Z,5.35
2023-05-18T10:45:06.405Z,6.40
2023-05-18T10:47:40.348Z,7.07
2023-05-18T10:50:15.251Z,6.68
2023-05-18T10:52:51.869Z,9.68
2023-05-18T10:55:29.350Z,5.38
2023-05-18T11:00:41.364Z,5.75
2023-05-18T11:03:15.156Z,5.63
2023-05-18T11:05:52.364Z,7.20
2023-05-18T11:08:27.875Z,4.68
2023-05-18T11:11:04.887Z,5.70
2023-05-18T11:13:38.851Z,3.67
2023-05-18T11:16:11.188Z,6.85
2023-05-18T11:18:45.822Z,3.38
2023-05-18T11:21:50.239Z,5.85
2023-05-18T11:24:32.716Z,4.93
2023-05-18T11:27:16.205Z,5.55
2023-05-18T11:29:50.658Z,6.25
2023-05-18T11:32:30.433Z,6.63
2023-05-18T11:35:05.946Z,6.32
2023-05-18T11:37:56.092Z,4.03
2023-05-18T11:40:47.263Z,3.97
2023-05-18T11:43:24.209Z,6.55
2023-05-18T11:45:59.906Z,6.40
2023-05-18T11:48:32.443Z,3.45
2023-05-18T11:51:09.512Z,5.80
2023-05-18T11:53:41.865Z,5.72
2023-05-18T11:56:14.150Z,4.40
2023-05-18T11:59:13.094Z,6.30
2023-05-18T12:01:46.040Z,4.93
2023-05-18T12:04:20.207Z,5.15
2023-05-18T12:06:52.954Z,4.05
2023-05-18T12:09:25.869Z,2.67
2023-05-18T12:11:58.172Z,4.35
2023-05-18T12:14:35.092Z,3.65
2023-05-18T12:17:07.949Z,3.92
2023-05-18T12:19:44.237Z,6.85
2023-05-18T12:22:16.942Z,5.70
2023-05-18T12:24:52.825Z,4.90
2023-05-18T12:27:26.639Z,2.78
2023-05-18T12:30:01.578Z,3.95
2023-05-18T12:32:33.854Z,4.13
2023-05-18T12:35:08.908Z,6.15
2023-05-18T12:37:45.730Z,4.68
2023-05-18T12:40:19.865Z,5.07
2023-05-18T12:42:53.956Z,5.85
2023-05-18T12:45:32.347Z,6.05
2023-05-18T12:48:05.684Z,5.90
2023-05-18T12:50:46.687Z,4.15
2023-05-18T12:53:19.677Z,4.30
2023-05-18T12:56:01.867Z,3.90
2023-05-18T12:58:34.094Z,5.38
2023-05-18T13:01:11.908Z,5.15
2023-05-18T13:03:44.324Z,4.00
2023-05-18T13:06:18.983Z,5.18
2023-05-18T13:08:54.553Z,6.07
2023-05-18T13:11:27.900Z,4.57
2023-05-18T13:14:01.316Z,5.07
2023-05-18T13:16:39.595Z,5.65
2023-05-18T13:19:16.468Z,5.00
2023-05-18T13:21:56.040Z,5.95
2023-05-18T13:24:28.209Z,7.05
2023-05-18T13:27:00.362Z,4.50
2023-05-18T13:29:34.653Z,3.58
2023-05-18T13:32:09.746Z,4.97
2023-05-18T13:34:43.270Z,3.63
2023-05-18T13:37:15.948Z,5.22
2023-05-18T13:39:48.200Z,3.95
2023-05-18T13:42:21.768Z,4.45
2023-05-18T13:44:53.900Z,4.85
2023-05-18T13:47:28.652Z,7.22
2023-05-18T13:50:00.808Z,4.15
2023-05-18T13:52:32.966Z,4.38
2023-05-18T13:55:06.548Z,6.82
2023-05-18T13:57:38.761Z,4.47
2023-05-18T14:00:13.320Z,5.90
2023-05-18T14:02:48.587Z,5.07
2023-05-18T14:05:21.109Z,10.57
2023-05-18T14:07:53.388Z,5.85
2023-05-18T14:10:25.777Z,4.30
2023-05-18T14:12:58.028Z,5.68
2023-05-18T14:15:30.150Z,4.65
2023-05-18T14:18:05.268Z,7.47
2023-05-18T14:20:38.293Z,7.93
2023-05-18T14:23:10.429Z,6.28
2023-05-18T14:25:43.869Z,4.63
2023-05-18T14:28:16.038Z,4.07
2023-05-18T14:30:48.289Z,5.18
2023-05-18T14:33:23.170Z,4.60
2023-05-18T14:35:57.319Z,4.10
2023-05-18T14:38:29.569Z,5.75
2023-05-18T14:41:01.810Z,4.07
2023-05-18T14:43:33.983Z,3.55
2023-05-18T14:46:08.665Z,13.18
2023-05-18T14:48:43.851Z,6.47
2023-05-18T14:51:16.492Z,7.47
2023-05-18T14:53:48.645Z,6.25
2023-05-18T14:56:20.896Z,11.63
2023-05-18T14:58:53.332Z,4.38
2023-05-18T15:01:25.639Z,5.40
2023-05-18T15:04:00.485Z,5.60
2023-05-18T15:06:33.518Z,4.10
2023-05-18T15:09:06.564Z,4.50
2023-05-18T15:11:38.730Z,4.88
2023-05-18T15:14:10.922Z,8.82
2023-05-18T15:16:43.587Z,3.30
2023-05-18T15:19:18.437Z,3.70
2023-05-18T15:21:50.684Z,4.72
2023-05-18T15:24:22.906Z,3.03
2023-05-18T15:26:55.129Z,3.88
2023-05-18T15:29:27.889Z,3.28
2023-05-18T15:32:00.120Z,6.75
2023-05-18T15:34:35.371Z,5.80
2023-05-18T15:37:07.596Z,5.72
2023-05-18T15:39:39.788Z,3.95
2023-05-18T15:42:11.975Z,4.82
2023-05-18T15:44:44.051Z,5.28
2023-05-18T15:47:16.168Z,6.68
2023-05-18T15:49:50.981Z,5.13
2023-05-18T15:52:23.189Z,6.47
2023-05-18T15:54:55.367Z,5.65
2023-05-18T15:57:27.471Z,6.47
2023-05-18T15:59:59.624Z,4.90
2023-05-18T16:02:31.731Z,4.30
2023-05-18T16:05:07.267Z,4.50
2023-05-18T16:07:41.301Z,3.75
2023-05-18T16:10:14.636Z,5.90
2023-05-18T16:12:46.746Z,5.65
2023-05-18T16:15:20.319Z,4.72
2023-05-18T16:17:52.550Z,4.53
2023-05-18T16:20:27.392Z,5.65
2023-05-18T16:22:59.822Z,6.47
2023-05-18T16:25:32.864Z,6.63
2023-05-18T16:28:05.239Z,7.22
2023-05-18T16:30:37.408Z,5.15
2023-05-18T16:33:09.762Z,7.43
2023-05-18T16:35:44.499Z,5.82
2023-05-18T16:38:17.043Z,39.90
2023-05-18T16:40:49.200Z,58.55
2023-05-18T16:43:23.244Z,74.07
2023-05-18T16:45:55.901Z,42.75
2023-05-18T16:48:28.324Z,10.57
2023-05-18T16:51:06.964Z,8.85
2023-05-18T16:53:39.088Z,4.45
2023-05-18T16:56:11.350Z,6.20
2023-05-18T16:58:43.457Z,5.35
2023-05-18T17:01:26.675Z,3.95
2023-05-18T17:04:00.170Z,4.63
2023-05-18T17:06:34.966Z,6.55
2023-05-18T17:09:07.407Z,5.18
2023-05-18T17:11:39.479Z,4.25
2023-05-18T17:14:11.620Z,3.10
2023-05-18T17:16:43.794Z,3.85
2023-05-18T17:19:15.926Z,6.07
2023-05-18T17:21:50.747Z,6.10
2023-05-18T17:24:22.962Z,6.80
2023-05-18T17:26:55.185Z,5.90
2023-05-18T17:29:27.663Z,6.10
2023-05-18T17:31:59.897Z,4.60
2023-05-18T17:34:32.095Z,6.25
2023-05-18T17:37:06.809Z,5.78
2023-05-18T17:39:39.000Z,3.72
2023-05-18T17:42:11.160Z,4.10
2023-05-18T17:44:44.211Z,11.43
2023-05-18T17:47:18.374Z,9.82
2023-05-18T17:49:50.727Z,37.45
2023-05-18T17:52:25.430Z,17.55
2023-05-18T17:55:00.319Z,10.43
2023-05-18T17:57:33.077Z,18.90
2023-05-18T18:00:07.298Z,8.55
2023-05-18T18:02:40.092Z,5.70
2023-05-18T18:05:13.128Z,6.90
2023-05-18T18:07:47.788Z,7.82
2023-05-18T18:10:20.016Z,5.18
2023-05-18T18:12:52.154Z,5.43
2023-05-18T18:15:29.111Z,5.13
2023-05-18T18:18:01.320Z,6.05
2023-05-18T18:20:36.761Z,4.72
2023-05-18T18:23:11.605Z,3.33
2023-05-18T18:25:44.237Z,3.85
2023-05-18T18:28:16.719Z,6.03
2023-05-18T18:30:49.193Z,5.75
2023-05-18T18:33:21.518Z,7.10
2023-05-18T18:35:54.479Z,4.32
2023-05-18T18:38:29.297Z,5.72
2023-05-18T18:41:04.451Z,4.10
2023-05-18T18:43:39.976Z,6.90
2023-05-18T18:46:12.233Z,4.10
2023-05-18T18:48:44.428Z,6.03
2023-05-18T18:51:16.579Z,7.00
2023-05-18T18:53:51.753Z,5.22
2023-05-18T18:56:25.337Z,6.47
2023-05-18T18:58:57.439Z,3.67
2023-05-18T19:01:29.664Z,3.97
2023-05-18T19:04:01.736Z,7.45
2023-05-18T19:06:34.705Z,4.47
2023-05-18T19:09:09.373Z,4.43
2023-05-18T19:11:41.566Z,7.93
2023-05-18T19:14:13.691Z,3.53
2023-05-18T19:16:46.131Z,6.10
2023-05-18T19:19:18.504Z,9.38
2023-05-18T19:21:50.781Z,12.68
2023-05-18T19:24:25.529Z,13.95
2023-05-18T19:26:57.699Z,10.98
2023-05-18T19:29:29.794Z,7.40
2023-05-18T19:32:02.397Z,7.80
2023-05-18T19:34:34.598Z,7.20
2023-05-18T19:37:09.506Z,8.18
2023-05-18T19:39:44.356Z,8.45
2023-05-18T19:42:16.704Z,6.47
2023-05-18T19:44:48.916Z,7.70
2023-05-18T19:47:21.270Z,8.63
2023-05-18T19:49:53.453Z,6.70
2023-05-18T19:52:25.608Z,3.28
2023-05-18T19:55:00.283Z,7.32
2023-05-18T19:57:33.230Z,5.53
2023-05-18T20:00:07.264Z,9.02
2023-05-18T20:02:39.590Z,3.42
2023-05-18T20:05:12.930Z,6.00
2023-05-18T20:07:45.123Z,4.90
2023-05-18T20:10:19.893Z,6.60
2023-05-18T20:12:52.079Z,6.03
2023-05-18T20:15:24.466Z,7.05
2023-05-18T20:17:56.647Z,4.40
2023-05-18T20:20:30.982Z,6.32
2023-05-18T20:23:03.747Z,3.53
2023-05-18T20:25:38.627Z,5.25
2023-05-18T20:28:10.907Z,5.95
2023-05-18T20:30:43.261Z,5.95
2023-05-18T20:33:15.913Z,6.65
2023-05-18T20:35:48.572Z,4.20
2023-05-18T20:38:20.746Z,4.32
2023-05-18T20:40:57.377Z,5.45
2023-05-18T20:43:29.619Z,2.95
2023-05-18T20:46:02.908Z,4.03
2023-05-18T20:48:36.101Z,5.53
2023-05-18T20:51:15.742Z,4.82
2023-05-18T20:53:47.898Z,4.68
2023-05-18T20:56:23.641Z,5.07
2023-05-18T20:58:55.856Z,4.70
2023-05-18T21:01:30.924Z,2.90
2023-05-18T21:04:05.854Z,5.13
2023-05-18T21:06:40.824Z,4.38
2023-05-18T21:09:13.266Z,4.65
2023-05-18T21:11:48.028Z,5.70
2023-05-18T21:14:20.696Z,6.40
2023-05-18T21:16:53.004Z,3.10
2023-05-18T21:19:25.783Z,3.13
2023-05-18T21:21:57.970Z,5.13
2023-05-18T21:24:30.148Z,3.97
2023-05-18T21:27:05.674Z,3.75
2023-05-18T21:29:37.797Z,4.60
2023-05-18T21:32:10.169Z,4.53
2023-05-18T21:34:43.730Z,4.63
2023-05-18T21:37:16.120Z,4.07
2023-05-18T21:39:48.311Z,3.75
2023-05-18T21:42:23.125Z,5.00
2023-05-18T21:44:55.298Z,4.20
2023-05-18T21:47:27.515Z,6.63
2023-05-18T21:49:59.713Z,3.10
2023-05-18T21:52:31.981Z,3.03
2023-05-18T21:55:05.091Z,4.05
2023-05-18T21:57:39.928Z,4.60
2023-05-18T22:00:14.022Z,5.63
2023-05-18T22:02:46.398Z,5.40
2023-05-18T22:05:19.158Z,2.72
2023-05-18T22:07:51.419Z,2.47
2023-05-18T22:10:23.747Z,2.47
2023-05-18T22:12:58.571Z,3.13
2023-05-18T22:15:32.183Z,4.55
2023-05-18T22:18:04.601Z,6.45
2023-05-18T22:20:36.976Z,3.17
2023-05-18T22:23:09.685Z,3.40
2023-05-18T22:25:41.824Z,4.13
2023-05-18T22:28:21.422Z,2.75
2023-05-18T22:30:53.645Z,4.82
2023-05-18T22:33:25.793Z,3.97
2023-05-18T22:35:57.924Z,3.50
2023-05-18T22:38:30.044Z,3.25
2023-05-18T22:41:02.147Z,4.35
2023-05-18T22:43:36.856Z,6.70
2023-05-18T22:46:09.215Z,7.20
2023-05-18T22:48:41.418Z,4.10
2023-05-18T22:51:13.546Z,7.15
2023-05-18T22:53:45.733Z,2.90
2023-05-18T22:56:19.210Z,2.80
2023-05-18T22:58:53.912Z,2.42
2023-05-18T23:01:26.128Z,5.55
2023-05-18T23:03:58.337Z,2.28
2023-05-18T23:06:31.876Z,4.07
2023-05-18T23:09:04.151Z,3.53
2023-05-18T23:11:37.086Z,5.57
2023-05-18T23:14:11.841Z,5.45
2023-05-18T23:16:43.992Z,4.60
2023-05-18T23:19:18.623Z,1.92
2023-05-18T23:21:50.801Z,4.47
2023-05-18T23:24:23.058Z,3.05
2023-05-18T23:26:55.490Z,3.55
2023-05-18T23:29:30.363Z,4.38
2023-05-18T23:32:03.070Z,4.47
2023-05-18T23:34:36.495Z,3.95
2023-05-18T23:37:11.971Z,5.80
2023-05-18T23:39:46.444Z,2.45
2023-05-18T23:42:19.853Z,4.65
2023-05-18T23:44:55.298Z,3.10
2023-05-18T23:47:27.973Z,4.28
2023-05-18T23:50:00.836Z,3.30
2023-05-18T23:52:34.451Z,3.42
2023-05-18T23:55:09.379Z,3.20
2023-05-18T23:57:42.055Z,3.92
